createdAt,value
2018-10-12T00:01:03.245Z,29.57
2018-10-12T00:03:32.920Z,30.63
2018-10-12T00:06:02.552Z,29.03
2018-10-12T00:08:32.191Z,27.53
2018-10-12T00:11:01.823Z,27.80
2018-10-12T00:13:31.454Z,29.03
2018-10-12T00:16:01.122Z,28.27
2018-10-12T00:18:30.778Z,28.77
2018-10-12T00:21:00.416Z,27.47
2018-10-12T00:23:30.070Z,26.97
2018-10-12T00:25:59.767Z,30.20
2018-10-12T00:28:29.395Z,27.57
2018-10-12T00:30:59.046Z,25.00
2018-10-12T00:33:28.651Z,24.73
2018-10-12T00:35:58.280Z,24.33
2018-10-12T00:38:27.918Z,25.07
2018-10-12T00:40:57.523Z,25.17
2018-10-12T00:43:27.186Z,24.67
2018-10-12T00:45:56.817Z,24.50
2018-10-12T00:48:26.446Z,26.17
2018-10-12T00:50:56.070Z,26.10
2018-10-12T00:53:25.710Z,28.80
2018-10-12T00:55:55.340Z,28.43
2018-10-12T00:58:24.985Z,24.57
2018-10-12T01:00:54.599Z,25.90
2018-10-12T01:03:24.245Z,28.57
2018-10-12T01:05:53.898Z,37.17
2018-10-12T01:08:23.527Z,36.97
2018-10-12T01:10:53.170Z,27.73
2018-10-12T01:13:22.827Z,26.87
2018-10-12T01:15:52.495Z,26.93
2018-10-12T01:18:22.178Z,25.10
2018-10-12T01:20:51.909Z,25.37
2018-10-12T01:23:21.571Z,23.33
2018-10-12T01:25:51.238Z,23.43
2018-10-12T01:28:20.894Z,23.87
2018-10-12T01:30:50.668Z,30.83
2018-10-12T01:33:20.321Z,34.40
2018-10-12T01:35:49.987Z,30.23
2018-10-12T01:38:19.660Z,26.43
2018-10-12T01:40:49.334Z,28.43
2018-10-12T01:43:18.989Z,26.40
2018-10-12T01:45:48.640Z,27.57
2018-10-12T01:48:18.355Z,24.70
2018-10-12T01:50:47.987Z,24.40
2018-10-12T01:53:17.639Z,24.73
2018-10-12T01:55:47.292Z,23.83
2018-10-12T01:58:16.995Z,23.63
2018-10-12T02:00:46.649Z,24.77
2018-10-12T02:03:16.273Z,25.00
2018-10-12T02:05:45.959Z,26.00
2018-10-12T02:08:15.620Z,24.33
2018-10-12T02:10:45.262Z,25.33
2018-10-12T02:13:15.042Z,23.60
2018-10-12T02:15:44.669Z,24.17
2018-10-12T02:18:14.322Z,23.80
2018-10-12T02:20:43.965Z,23.40
2018-10-12T02:23:13.590Z,23.33
2018-10-12T02:25:43.239Z,21.83
2018-10-12T02:28:12.879Z,23.80
2018-10-12T02:30:42.509Z,22.37
2018-10-12T02:33:12.111Z,24.17
2018-10-12T02:35:41.734Z,23.20
2018-10-12T02:38:11.379Z,25.07
2018-10-12T02:40:41.021Z,24.37
2018-10-12T02:43:10.711Z,23.57
2018-10-12T02:45:40.328Z,24.23
2018-10-12T02:48:09.969Z,23.90
2018-10-12T02:50:39.590Z,23.93
2018-10-12T02:53:09.233Z,24.40
2018-10-12T02:55:38.844Z,27.03
2018-10-12T02:58:08.516Z,26.17
2018-10-12T03:00:38.154Z,26.83
2018-10-12T03:03:07.807Z,26.23
2018-10-12T03:05:37.471Z,27.43
2018-10-12T03:08:07.122Z,26.87
2018-10-12T03:10:36.822Z,25.70
2018-10-12T03:13:06.468Z,27.40
2018-10-12T03:15:36.067Z,27.57
2018-10-12T03:18:05.807Z,27.73
2018-10-12T03:20:35.471Z,27.50
2018-10-12T03:23:05.133Z,29.27
2018-10-12T03:25:34.834Z,28.30
2018-10-12T03:28:15.449Z,28.23
2018-10-12T03:30:45.160Z,26.50
2018-10-12T03:33:14.891Z,28.10
2018-10-12T03:35:44.687Z,28.57
2018-10-12T03:38:14.518Z,28.13
2018-10-12T03:40:44.719Z,29.53
2018-10-12T03:43:14.405Z,29.50
2018-10-12T03:45:44.429Z,31.13
2018-10-12T03:48:14.132Z,40.20
2018-10-12T03:50:43.811Z,38.93
2018-10-12T03:53:13.747Z,33.17
2018-10-12T03:55:43.402Z,33.87
2018-10-12T03:58:13.109Z,35.63
2018-10-12T04:00:42.801Z,38.40
2018-10-12T04:03:12.456Z,33.13
2018-10-12T04:05:42.101Z,32.83
2018-10-12T04:08:11.702Z,45.13
2018-10-12T04:10:41.321Z,38.13
2018-10-12T04:13:10.939Z,41.10
2018-10-12T04:15:40.566Z,40.03
2018-10-12T04:18:10.246Z,43.93
2018-10-12T04:20:39.884Z,39.47
2018-10-12T04:23:09.571Z,34.00
2018-10-12T04:25:39.182Z,34.80
2018-10-12T04:28:08.842Z,33.57
2018-10-12T04:30:38.456Z,35.13
2018-10-12T04:33:08.207Z,33.90
2018-10-12T04:35:37.837Z,34.70
2018-10-12T04:38:07.505Z,32.43
2018-10-12T04:41:17.222Z,32.47
2018-10-12T04:43:48.148Z,30.20
2018-10-12T04:46:21.251Z,31.97
2018-10-12T04:48:51.499Z,34.10
2018-10-12T04:51:23.630Z,40.93
2018-10-12T04:53:53.494Z,40.23
2018-10-12T04:56:23.126Z,36.50
2018-10-12T04:58:52.781Z,35.67
2018-10-12T05:01:22.442Z,34.90
2018-10-12T05:03:52.121Z,42.83
2018-10-12T05:06:21.813Z,41.70
2018-10-12T05:08:51.515Z,38.67
2018-10-12T05:11:21.167Z,34.83
2018-10-12T05:13:50.817Z,34.27
2018-10-12T05:16:20.471Z,40.07
2018-10-12T05:18:50.104Z,36.50
2018-10-12T05:21:19.775Z,37.67
2018-10-12T05:23:49.403Z,36.20
2018-10-12T05:26:19.090Z,38.13
2018-10-12T05:28:48.797Z,37.50
2018-10-12T05:31:18.500Z,42.03
2018-10-12T05:33:48.146Z,40.80
2018-10-12T05:36:17.958Z,42.43
2018-10-12T05:38:47.613Z,41.23
2018-10-12T05:41:17.336Z,39.53
2018-10-12T05:43:47.077Z,40.20
2018-10-12T05:46:16.657Z,37.83
2018-10-12T05:48:57.465Z,39.63
2018-10-12T05:51:27.142Z,39.63
2018-10-12T05:53:56.910Z,43.40
2018-10-12T05:56:31.159Z,123.17
2018-10-12T05:59:01.150Z,87.83
2018-10-12T06:01:30.882Z,51.60
2018-10-12T06:04:00.543Z,40.37
2018-10-12T06:06:30.398Z,36.53
2018-10-12T06:09:00.128Z,33.47
2018-10-12T06:11:29.883Z,37.47
2018-10-12T06:13:59.477Z,34.37
2018-10-12T06:16:29.109Z,34.90
2018-10-12T06:18:58.760Z,30.13
2018-10-12T06:21:28.465Z,32.53
2018-10-12T06:23:58.065Z,37.07
2018-10-12T06:26:27.689Z,32.77
2018-10-12T06:28:57.322Z,31.03
2018-10-12T06:31:26.983Z,32.03
2018-10-12T06:33:56.601Z,47.87
2018-10-12T06:36:26.262Z,39.90
2018-10-12T06:38:55.901Z,30.80
2018-10-12T06:41:25.554Z,35.90
2018-10-12T06:43:55.161Z,34.90
2018-10-12T06:46:24.792Z,38.83
2018-10-12T06:48:54.447Z,33.73
2018-10-12T06:51:24.258Z,40.00
2018-10-12T06:53:53.950Z,30.80
2018-10-12T06:56:23.580Z,27.60
2018-10-12T06:58:53.280Z,28.47
2018-10-12T07:01:22.994Z,28.60
2018-10-12T07:03:52.694Z,31.10
2018-10-12T07:06:22.389Z,30.00
2018-10-12T07:08:52.068Z,28.83
2018-10-12T07:11:21.691Z,28.70
2018-10-12T07:13:51.454Z,30.63
2018-10-12T07:16:22.282Z,32.97
2018-10-12T07:18:52.183Z,32.53
2018-10-12T07:21:21.775Z,31.50
2018-10-12T07:23:51.398Z,32.70
2018-10-12T07:26:21.043Z,31.73
2018-10-12T07:28:50.690Z,34.97
2018-10-12T07:31:20.336Z,32.47
2018-10-12T07:33:49.943Z,27.10
2018-10-12T07:36:19.658Z,28.93
2018-10-12T07:38:49.292Z,31.13
2018-10-12T07:41:19.220Z,26.33
2018-10-12T07:43:48.854Z,28.63
2018-10-12T07:46:18.475Z,24.57
2018-10-12T07:48:48.499Z,29.43
2018-10-12T07:51:18.112Z,31.87
2018-10-12T07:53:47.718Z,45.03
2018-10-12T07:56:17.380Z,102.17
2018-10-12T07:58:47.007Z,87.23
2018-10-12T08:01:16.638Z,42.27
2018-10-12T08:03:46.272Z,37.70
2018-10-12T08:06:15.993Z,34.20
2018-10-12T08:08:45.568Z,33.40
2018-10-12T08:11:15.226Z,29.47
2018-10-12T08:13:44.950Z,27.47
2018-10-12T08:16:14.556Z,24.70
2018-10-12T08:18:44.451Z,27.37
2018-10-12T08:21:14.114Z,26.93
2018-10-12T08:23:43.764Z,28.87
2018-10-12T08:26:13.408Z,28.23
2018-10-12T08:28:43.079Z,28.33
2018-10-12T08:31:12.694Z,27.50
2018-10-12T08:33:42.460Z,31.03
2018-10-12T08:36:12.082Z,29.70
2018-10-12T08:38:41.783Z,28.73
2018-10-12T08:41:11.469Z,27.67
2018-10-12T08:43:41.133Z,28.17
2018-10-12T08:46:10.772Z,26.50
2018-10-12T08:48:40.401Z,35.63
2018-10-12T08:51:10.048Z,77.57
2018-10-12T08:53:39.805Z,43.60
2018-10-12T08:56:09.490Z,32.57
2018-10-12T08:58:39.212Z,32.83
2018-10-12T09:01:08.858Z,32.00
2018-10-12T09:03:38.458Z,25.57
2018-10-12T09:06:08.101Z,23.63
2018-10-12T09:08:37.715Z,24.20
2018-10-12T09:11:07.663Z,24.20
2018-10-12T09:13:37.311Z,25.87
2018-10-12T09:16:07.587Z,21.77
2018-10-12T09:18:37.535Z,22.23
2018-10-12T09:21:07.332Z,23.23
2018-10-12T09:23:37.235Z,21.60
2018-10-12T09:26:07.268Z,22.23
2018-10-12T09:28:36.927Z,21.23
2018-10-12T09:31:07.160Z,24.27
2018-10-12T09:33:36.783Z,23.80
2018-10-12T09:36:06.430Z,22.17
2018-10-12T09:38:36.686Z,21.17
2018-10-12T09:41:06.315Z,21.63
2018-10-12T09:43:36.064Z,20.80
2018-10-12T09:46:05.781Z,21.57
2018-10-12T09:48:35.423Z,21.97
2018-10-12T09:51:05.051Z,21.07
2018-10-12T09:53:34.673Z,21.40
2018-10-12T09:56:04.372Z,22.37
2018-10-12T09:58:33.975Z,22.40
2018-10-12T10:01:08.803Z,22.03
2018-10-12T10:03:43.777Z,20.20
2018-10-12T10:06:13.427Z,19.97
2018-10-12T10:08:43.146Z,19.67
2018-10-12T10:11:12.770Z,19.40
2018-10-12T10:13:42.389Z,20.10
2018-10-12T10:16:12.014Z,19.47
2018-10-12T10:18:41.668Z,21.10
2018-10-12T10:21:11.291Z,19.50
2018-10-12T10:23:40.921Z,19.10
2018-10-12T10:26:10.545Z,20.40
2018-10-12T10:28:40.169Z,18.80
2018-10-12T10:31:09.809Z,20.07
2018-10-12T10:33:39.416Z,18.07
2018-10-12T10:36:09.040Z,18.43
2018-10-12T10:38:38.734Z,18.77
2018-10-12T10:41:08.375Z,17.70
2018-10-12T10:43:38.058Z,17.93
2018-10-12T10:46:07.811Z,18.47
2018-10-12T10:48:37.466Z,18.00
2018-10-12T10:51:07.334Z,17.60
2018-10-12T10:53:37.012Z,17.20
2018-10-12T10:56:06.765Z,17.30
2018-10-12T10:58:36.399Z,16.90
2018-10-12T11:01:06.134Z,16.83
2018-10-12T11:03:35.759Z,17.63
2018-10-12T11:06:05.416Z,17.07
2018-10-12T11:08:35.064Z,17.47
2018-10-12T11:11:04.742Z,17.77
2018-10-12T11:13:34.367Z,16.63
2018-10-12T11:16:04.025Z,16.40
2018-10-12T11:18:33.667Z,16.37
2018-10-12T11:21:03.314Z,16.37
2018-10-12T11:23:32.957Z,16.47
2018-10-12T11:26:02.557Z,17.33
2018-10-12T11:28:32.229Z,15.43
2018-10-12T11:31:01.842Z,15.93
2018-10-12T11:33:31.889Z,22.97
2018-10-12T11:36:01.191Z,17.23
2018-10-12T11:38:30.864Z,24.50
2018-10-12T11:41:00.445Z,17.47
2018-10-12T11:43:35.696Z,15.73
2018-10-12T11:46:05.402Z,16.27
2018-10-12T11:48:35.097Z,16.17
2018-10-12T11:51:04.763Z,16.03
2018-10-12T11:53:34.373Z,15.10
2018-10-12T11:56:04.029Z,16.07
2018-10-12T11:58:33.634Z,16.23
2018-10-12T12:01:03.355Z,16.30
2018-10-12T12:03:32.998Z,15.13
2018-10-12T12:06:02.612Z,14.53
2018-10-12T12:11:09.062Z,13.83
2018-10-12T12:13:38.767Z,14.60
2018-10-12T12:16:08.387Z,13.83
2018-10-12T12:18:38.135Z,13.50
2018-10-12T12:21:07.912Z,14.45
2018-10-12T12:23:37.549Z,14.23
2018-10-12T12:26:07.302Z,13.65
2018-10-12T12:28:36.946Z,13.03
2018-10-12T12:31:06.590Z,13.20
2018-10-12T12:33:36.222Z,13.30
2018-10-12T12:36:07.196Z,13.10
2018-10-12T12:38:36.671Z,12.73
2018-10-12T12:41:06.278Z,13.35
2018-10-12T12:43:35.910Z,12.95
2018-10-12T12:46:05.571Z,12.78
2018-10-12T12:48:35.491Z,12.63
2018-10-12T12:51:04.904Z,12.90
2018-10-12T12:53:34.527Z,12.78
2018-10-12T12:56:04.179Z,12.60
2018-10-12T12:58:33.796Z,12.58
2018-10-12T13:01:03.466Z,12.30
2018-10-12T13:03:33.064Z,12.37
2018-10-12T13:06:02.682Z,12.07
2018-10-12T13:08:32.317Z,11.57
2018-10-12T13:11:01.973Z,12.03
2018-10-12T13:13:31.633Z,12.78
2018-10-12T13:16:01.250Z,11.88
2018-10-12T13:18:30.886Z,11.15
2018-10-12T13:21:00.552Z,12.37
2018-10-12T13:23:30.168Z,11.18
2018-10-12T13:25:59.934Z,12.50
2018-10-12T13:28:30.824Z,12.25
2018-10-12T13:31:00.468Z,12.80
2018-10-12T13:33:30.060Z,13.03
2018-10-12T13:35:59.731Z,11.93
2018-10-12T13:38:29.432Z,12.65
2018-10-12T13:40:59.054Z,14.23
2018-10-12T13:43:28.672Z,12.75
2018-10-12T13:45:58.305Z,12.47
2018-10-12T13:48:27.946Z,12.93
2018-10-12T13:50:57.628Z,13.88
2018-10-12T13:53:27.270Z,12.82
2018-10-12T13:55:56.901Z,13.00
2018-10-12T13:58:26.529Z,13.83
2018-10-12T14:00:56.231Z,15.58
2018-10-12T14:03:25.858Z,13.28
2018-10-12T14:05:55.528Z,13.35
2018-10-12T14:08:25.287Z,12.93
2018-10-12T14:10:54.843Z,13.20
2018-10-12T14:13:24.493Z,12.35
2018-10-12T14:15:54.124Z,12.58
2018-10-12T14:18:23.813Z,13.62
2018-10-12T14:20:53.498Z,14.00
2018-10-12T14:23:23.095Z,13.53
2018-10-12T14:25:52.725Z,14.18
2018-10-12T14:28:22.344Z,13.40
2018-10-12T14:30:51.979Z,17.27
2018-10-12T14:33:21.708Z,16.55
2018-10-12T14:35:51.430Z,14.45
2018-10-12T14:38:21.084Z,14.85
2018-10-12T14:40:50.714Z,14.85
2018-10-12T14:43:20.361Z,15.15
2018-10-12T14:45:49.983Z,15.10
2018-10-12T14:48:19.622Z,15.28
2018-10-12T14:50:49.264Z,15.88
2018-10-12T14:53:18.927Z,14.78
2018-10-12T14:55:48.578Z,14.90
2018-10-12T14:58:18.202Z,17.52
2018-10-12T15:00:47.843Z,21.52
2018-10-12T15:03:17.466Z,19.35
2018-10-12T15:05:47.086Z,16.57
2018-10-12T15:08:16.743Z,17.27
2018-10-12T15:10:46.420Z,16.80
2018-10-12T15:13:17.412Z,16.50
2018-10-12T15:15:47.203Z,20.25
2018-10-12T15:18:16.903Z,18.00
2018-10-12T15:20:46.585Z,19.50
2018-10-12T15:23:16.298Z,18.90
2018-10-12T15:25:45.970Z,18.23
2018-10-12T15:28:15.588Z,16.67
2018-10-12T15:30:45.214Z,19.55
2018-10-12T15:33:14.832Z,24.70
2018-10-12T15:35:44.431Z,43.63
2018-10-12T15:38:14.046Z,50.35
2018-10-12T15:40:43.720Z,38.00
2018-10-12T15:43:13.481Z,38.92
2018-10-12T15:45:43.136Z,34.80
2018-10-12T15:48:12.754Z,29.07
2018-10-12T15:50:42.458Z,59.27
2018-10-12T15:53:12.099Z,49.90
2018-10-12T15:55:41.704Z,40.90
2018-10-12T15:58:11.379Z,40.50
2018-10-12T16:00:41.034Z,91.53
2018-10-12T16:03:10.762Z,463.00
2018-10-12T16:05:40.464Z,309.23
2018-10-12T16:08:10.095Z,265.20
2018-10-12T16:10:39.764Z,102.33
2018-10-12T16:13:09.673Z,39.53
2018-10-12T16:15:39.333Z,28.23
2018-10-12T16:18:08.947Z,30.83
2018-10-12T16:20:38.561Z,168.43
2018-10-12T16:23:08.338Z,108.83
2018-10-12T16:25:59.184Z,40.90
2018-10-12T16:28:28.834Z,33.27
2018-10-12T16:30:58.980Z,241.60
2018-10-12T16:33:28.686Z,103.80
2018-10-12T16:35:59.319Z,212.40
2018-10-12T16:38:28.877Z,56.63
2018-10-12T16:40:58.536Z,45.00
2018-10-12T16:43:28.179Z,40.37
2018-10-12T16:45:57.834Z,37.70
2018-10-12T16:48:29.119Z,37.93
2018-10-12T16:50:58.774Z,36.90
2018-10-12T16:53:28.394Z,32.57
2018-10-12T17:04:27.165Z,30.17
2018-10-12T17:06:56.770Z,31.27
2018-10-12T17:09:26.408Z,36.57
2018-10-12T17:11:56.045Z,46.33
2018-10-12T17:14:25.699Z,43.07
2018-10-12T17:16:55.472Z,41.10
2018-10-12T17:19:25.097Z,41.07
2018-10-12T17:21:54.689Z,39.07
2018-10-12T17:24:24.306Z,38.13
2018-10-12T17:26:53.945Z,41.17
2018-10-12T17:29:23.680Z,32.83
2018-10-12T17:31:53.314Z,38.03
2018-10-12T17:34:22.970Z,37.00
2018-10-12T17:36:52.587Z,36.93
2018-10-12T17:39:22.239Z,78.90
2018-10-12T17:41:51.889Z,92.47
2018-10-12T17:44:21.498Z,58.10
2018-10-12T17:46:51.118Z,36.97
2018-10-12T17:49:20.772Z,47.40
2018-10-12T17:51:50.406Z,38.70
2018-10-12T17:54:20.079Z,66.77
2018-10-12T17:56:49.684Z,49.63
2018-10-12T17:59:19.300Z,34.10
2018-10-12T18:01:48.919Z,37.27
2018-10-12T18:04:18.544Z,32.43
2018-10-12T18:06:48.193Z,71.80
2018-10-12T18:09:17.841Z,53.83
2018-10-12T18:11:47.461Z,41.77
2018-10-12T18:14:17.208Z,40.97
2018-10-12T18:16:46.866Z,53.37
2018-10-12T18:19:17.293Z,48.60
2018-10-12T18:21:47.164Z,41.03
2018-10-12T18:24:22.636Z,59.27
2018-10-12T18:26:53.686Z,83.63
2018-10-12T18:29:23.442Z,40.30
2018-10-12T18:31:53.128Z,69.33
2018-10-12T18:34:22.762Z,49.50
2018-10-12T18:36:52.501Z,45.33
2018-10-12T18:39:22.164Z,51.27
2018-10-12T18:41:51.831Z,58.87
2018-10-12T18:44:21.468Z,52.47
2018-10-12T18:46:51.114Z,50.17
2018-10-12T18:49:20.737Z,53.00
2018-10-12T18:51:50.418Z,43.03
2018-10-12T18:54:20.079Z,44.20
2018-10-12T18:56:49.697Z,34.50
2018-10-12T18:59:19.317Z,31.40
2018-10-12T19:01:48.962Z,32.80
2018-10-12T19:04:18.627Z,29.80
2018-10-12T19:06:48.365Z,32.90
2018-10-12T19:09:17.923Z,32.70
2018-10-12T19:11:47.556Z,33.20
2018-10-12T19:14:17.197Z,33.73
2018-10-12T19:16:46.816Z,33.77
2018-10-12T19:19:16.504Z,35.70
2018-10-12T19:21:46.140Z,37.40
2018-10-12T19:24:16.655Z,36.80
2018-10-12T19:26:46.261Z,37.50
2018-10-12T19:29:15.876Z,41.33
2018-10-12T19:31:45.558Z,51.13
2018-10-12T19:34:15.211Z,48.37
2018-10-12T19:36:44.840Z,47.50
2018-10-12T19:39:14.449Z,42.87
2018-10-12T19:41:44.084Z,41.80
2018-10-12T19:44:13.885Z,38.00
2018-10-12T19:46:43.515Z,41.07
2018-10-12T19:49:13.131Z,39.00
2018-10-12T19:51:42.740Z,39.00
2018-10-12T19:54:12.371Z,38.50
2018-10-12T19:56:41.994Z,41.80
2018-10-12T19:59:11.745Z,40.10
2018-10-12T20:01:41.392Z,42.30
2018-10-12T20:04:11.271Z,35.60
2018-10-12T20:06:40.886Z,39.43
2018-10-12T20:09:12.094Z,33.67
2018-10-12T20:11:42.638Z,33.57
2018-10-12T20:14:12.364Z,32.57
2018-10-12T20:16:42.245Z,32.53
2018-10-12T20:19:11.880Z,31.47
2018-10-12T20:21:41.562Z,31.70
2018-10-12T20:24:11.266Z,32.03
2018-10-12T20:26:40.879Z,31.97
2018-10-12T20:29:10.486Z,33.03
2018-10-12T20:31:40.156Z,33.33
2018-10-12T20:34:09.831Z,32.43
2018-10-12T20:36:39.454Z,32.90
2018-10-12T20:39:10.838Z,32.57
2018-10-12T20:41:40.536Z,35.00
2018-10-12T20:44:10.498Z,35.57
2018-10-12T20:46:40.235Z,36.27
2018-10-12T20:49:09.856Z,37.90
2018-10-12T20:51:39.584Z,36.13
2018-10-12T20:54:09.245Z,36.30
2018-10-12T20:56:38.884Z,35.60
2018-10-12T20:59:08.518Z,40.10
2018-10-12T21:01:38.132Z,39.20
2018-10-12T21:04:07.921Z,37.70
2018-10-12T21:06:37.451Z,37.97
2018-10-12T21:09:08.905Z,38.27
2018-10-12T21:11:38.513Z,38.83
2018-10-12T21:14:08.124Z,39.77
2018-10-12T21:16:37.736Z,37.60
2018-10-12T21:19:07.344Z,36.97
2018-10-12T21:21:37.040Z,37.97
2018-10-12T21:24:06.749Z,39.43
2018-10-12T21:26:36.371Z,39.47
2018-10-12T21:29:06.026Z,39.87
2018-10-12T21:31:35.633Z,42.73
2018-10-12T21:34:05.253Z,40.93
2018-10-12T21:36:34.874Z,41.30
2018-10-12T21:39:05.670Z,40.37
2018-10-12T21:41:35.567Z,39.43
2018-10-12T21:44:05.176Z,38.83
2018-10-12T21:46:34.866Z,39.80
2018-10-12T21:49:04.492Z,40.83
2018-10-12T21:51:34.116Z,40.30
2018-10-12T21:54:03.748Z,40.37
2018-10-12T21:56:33.346Z,40.43
2018-10-12T21:59:02.944Z,40.13
2018-10-12T22:01:32.590Z,40.13
2018-10-12T22:04:02.224Z,39.97
2018-10-12T22:06:31.844Z,38.97
2018-10-12T22:09:07.083Z,39.63
2018-10-12T22:11:36.787Z,40.40
2018-10-12T22:14:06.466Z,40.83
2018-10-12T22:16:36.101Z,40.30
2018-10-12T22:19:05.917Z,40.77
2018-10-12T22:21:35.540Z,40.50
2018-10-12T22:24:05.178Z,41.70
2018-10-12T22:26:34.796Z,43.23
2018-10-12T22:29:04.420Z,40.80
2018-10-12T22:31:34.036Z,42.60
2018-10-12T22:34:03.642Z,43.13
2018-10-12T22:36:33.262Z,43.33
2018-10-12T22:39:03.015Z,41.77
2018-10-12T22:41:32.639Z,42.13
2018-10-12T22:44:02.286Z,43.07
2018-10-12T22:46:32.737Z,42.90
2018-10-12T22:49:02.391Z,41.50
2018-10-12T22:51:31.992Z,42.70
2018-10-12T22:54:01.671Z,42.07
2018-10-12T22:56:31.296Z,43.90
2018-10-12T22:59:00.896Z,44.83
2018-10-12T23:01:30.495Z,49.73
2018-10-12T23:04:00.227Z,54.83
2018-10-12T23:06:29.875Z,54.37
2018-10-12T23:08:59.494Z,57.67
2018-10-12T23:11:29.144Z,60.37
2018-10-12T23:13:58.790Z,56.97
2018-10-12T23:16:28.403Z,55.73
2018-10-12T23:18:58.017Z,50.83
2018-10-12T23:21:27.621Z,48.87
2018-10-12T23:23:57.270Z,47.87
2018-10-12T23:26:26.884Z,46.60
2018-10-12T23:28:56.499Z,45.00
2018-10-12T23:31:26.147Z,45.73
2018-10-12T23:34:12.346Z,45.57
2018-10-12T23:36:41.945Z,45.43
2018-10-12T23:39:11.593Z,45.60
2018-10-12T23:41:41.233Z,45.47
2018-10-12T23:44:10.855Z,45.10
2018-10-12T23:46:40.455Z,46.20
2018-10-12T23:49:10.067Z,44.87
2018-10-12T23:51:39.683Z,44.37
2018-10-12T23:54:09.312Z,42.57
2018-10-12T23:56:38.964Z,45.63
2018-10-12T23:59:08.613Z,43.83
